sensor_id;sensor_type;location;lat;lon;timestamp;temperature;humidity
2523;DHT22;1272;53.332;9.860;2023-03-17T00:01:14;5.70;99.90
2523;DHT22;1272;53.332;9.860;2023-03-17T00:03:44;5.70;99.90
2523;DHT22;1272;53.332;9.860;2023-03-17T00:06:25;5.70;99.90
2523;DHT22;1272;53.332;9.860;2023-03-17T00:08:52;5.70;99.90
2523;DHT22;1272;53.332;9.860;2023-03-17T00:11:18;5.60;99.90
2523;DHT22;1272;53.332;9.860;2023-03-17T00:13:44;5.70;99.90
2523;DHT22;1272;53.332;9.860;2023-03-17T00:16:37;5.70;99.90
2523;DHT22;1272;53.332;9.860;2023-03-17T00:19:03;5.70;99.90
2523;DHT22;1272;53.332;9.860;2023-03-17T00:21:32;5.70;99.90
2523;DHT22;1272;53.332;9.860;2023-03-17T00:23:59;5.70;99.90
2523;DHT22;1272;53.332;9.860;2023-03-17T00:26:27;5.70;99.90
2523;DHT22;1272;53.332;9.860;2023-03-17T00:28:53;5.70;99.90
2523;DHT22;1272;53.332;9.860;2023-03-17T00:31:27;5.70;99.90
2523;DHT22;1272;53.332;9.860;2023-03-17T00:33:54;5.70;99.90
2523;DHT22;1272;53.332;9.860;2023-03-17T00:36:23;5.70;99.90
2523;DHT22;1272;53.332;9.860;2023-03-17T00:38:51;5.70;99.90
2523;DHT22;1272;53.332;9.860;2023-03-17T00:41:17;5.70;99.90
2523;DHT22;1272;53.332;9.860;2023-03-17T00:43:43;5.70;99.90
2523;DHT22;1272;53.332;9.860;2023-03-17T00:46:25;5.80;99.90
2523;DHT22;1272;53.332;9.860;2023-03-17T00:48:52;5.80;99.90
2523;DHT22;1272;53.332;9.860;2023-03-17T00:51:18;5.70;99.90
2523;DHT22;1272;53.332;9.860;2023-03-17T00:53:45;5.80;99.90
2523;DHT22;1272;53.332;9.860;2023-03-17T00:56:16;5.80;99.90
2523;DHT22;1272;53.332;9.860;2023-03-17T00:58:44;5.80;99.90
2523;DHT22;1272;53.332;9.860;2023-03-17T01:01:11;5.80;99.90
2523;DHT22;1272;53.332;9.860;2023-03-17T01:03:37;5.80;99.90
2523;DHT22;1272;53.332;9.860;2023-03-17T01:06:04;5.70;99.90
2523;DHT22;1272;53.332;9.860;2023-03-17T01:08:31;5.70;99.90
2523;DHT22;1272;53.332;9.860;2023-03-17T01:10:57;5.80;99.90
2523;DHT22;1272;53.332;9.860;2023-03-17T01:13:24;5.80;99.90
2523;DHT22;1272;53.332;9.860;2023-03-17T01:15:51;5.80;99.90
2523;DHT22;1272;53.332;9.860;2023-03-17T01:18:20;5.70;99.90
2523;DHT22;1272;53.332;9.860;2023-03-17T01:20:47;5.60;99.90
2523;DHT22;1272;53.332;9.860;2023-03-17T01:23:13;5.60;99.90
2523;DHT22;1272;53.332;9.860;2023-03-17T01:25:41;5.50;99.90
2523;DHT22;1272;53.332;9.860;2023-03-17T01:28:09;5.50;99.90
2523;DHT22;1272;53.332;9.860;2023-03-17T01:30:37;5.50;99.90
2523;DHT22;1272;53.332;9.860;2023-03-17T01:33:05;5.40;99.90
2523;DHT22;1272;53.332;9.860;2023-03-17T01:35:33;5.40;99.90
2523;DHT22;1272;53.332;9.860;2023-03-17T01:37:59;5.40;99.90
2523;DHT22;1272;53.332;9.860;2023-03-17T01:40:31;5.30;99.90
2523;DHT22;1272;53.332;9.860;2023-03-17T01:43:22;5.40;99.90
2523;DHT22;1272;53.332;9.860;2023-03-17T01:54:40;5.30;99.90
2523;DHT22;1272;53.332;9.860;2023-03-17T01:57:26;5.20;99.90
2523;DHT22;1272;53.332;9.860;2023-03-17T02:02:27;5.20;99.90
2523;DHT22;1272;53.332;9.860;2023-03-17T02:04:54;5.10;99.90
2523;DHT22;1272;53.332;9.860;2023-03-17T02:07:21;5.10;99.90
2523;DHT22;1272;53.332;9.860;2023-03-17T02:09:47;5.10;99.90
2523;DHT22;1272;53.332;9.860;2023-03-17T02:12:13;5.10;99.90
2523;DHT22;1272;53.332;9.860;2023-03-17T02:14:40;5.10;99.90
2523;DHT22;1272;53.332;9.860;2023-03-17T02:17:06;5.10;99.90
2523;DHT22;1272;53.332;9.860;2023-03-17T02:19:32;5.10;99.90
2523;DHT22;1272;53.332;9.860;2023-03-17T02:21:58;5.10;99.90
2523;DHT22;1272;53.332;9.860;2023-03-17T02:24:35;5.10;99.90
2523;DHT22;1272;53.332;9.860;2023-03-17T02:27:15;5.10;99.90
2523;DHT22;1272;53.332;9.860;2023-03-17T02:29:42;5.10;99.90
2523;DHT22;1272;53.332;9.860;2023-03-17T02:32:12;5.20;99.90
2523;DHT22;1272;53.332;9.860;2023-03-17T02:34:39;5.20;99.90
2523;DHT22;1272;53.332;9.860;2023-03-17T02:37:05;5.20;99.90
2523;DHT22;1272;53.332;9.860;2023-03-17T02:39:35;5.20;99.90
2523;DHT22;1272;53.332;9.860;2023-03-17T02:42:02;5.20;99.90
2523;DHT22;1272;53.332;9.860;2023-03-17T02:44:31;5.20;99.90
2523;DHT22;1272;53.332;9.860;2023-03-17T02:46:57;5.20;99.90
2523;DHT22;1272;53.332;9.860;2023-03-17T02:49:24;5.20;99.90
2523;DHT22;1272;53.332;9.860;2023-03-17T02:51:51;5.20;99.90
2523;DHT22;1272;53.332;9.860;2023-03-17T02:54:17;5.20;99.90
2523;DHT22;1272;53.332;9.860;2023-03-17T02:56:43;5.20;99.90
2523;DHT22;1272;53.332;9.860;2023-03-17T02:59:09;5.20;99.90
2523;DHT22;1272;53.332;9.860;2023-03-17T03:01:35;5.20;99.90
2523;DHT22;1272;53.332;9.860;2023-03-17T03:04:00;5.30;99.90
2523;DHT22;1272;53.332;9.860;2023-03-17T03:06:27;5.20;99.90
2523;DHT22;1272;53.332;9.860;2023-03-17T03:08:52;5.30;99.90
2523;DHT22;1272;53.332;9.860;2023-03-17T03:11:18;5.20;99.90
2523;DHT22;1272;53.332;9.860;2023-03-17T03:13:44;5.30;99.90
2523;DHT22;1272;53.332;9.860;2023-03-17T03:16:11;5.30;99.90
2523;DHT22;1272;53.332;9.860;2023-03-17T03:18:37;5.30;99.90
2523;DHT22;1272;53.332;9.860;2023-03-17T03:21:04;5.20;99.90
2523;DHT22;1272;53.332;9.860;2023-03-17T03:23:30;5.30;99.90
2523;DHT22;1272;53.332;9.860;2023-03-17T03:25:56;5.30;99.90
2523;DHT22;1272;53.332;9.860;2023-03-17T03:28:22;5.20;99.90
2523;DHT22;1272;53.332;9.860;2023-03-17T03:30:51;5.20;99.90
2523;DHT22;1272;53.332;9.860;2023-03-17T03:33:17;5.20;99.90
2523;DHT22;1272;53.332;9.860;2023-03-17T03:35:43;5.30;99.90
2523;DHT22;1272;53.332;9.860;2023-03-17T03:38:10;5.40;99.90
2523;DHT22;1272;53.332;9.860;2023-03-17T03:40:36;5.30;99.90
2523;DHT22;1272;53.332;9.860;2023-03-17T03:43:02;5.30;99.90
2523;DHT22;1272;53.332;9.860;2023-03-17T03:45:28;5.20;99.90
2523;DHT22;1272;53.332;9.860;2023-03-17T03:47:53;5.30;99.90
2523;DHT22;1272;53.332;9.860;2023-03-17T03:50:20;5.20;99.90
2523;DHT22;1272;53.332;9.860;2023-03-17T03:52:46;5.20;99.90
2523;DHT22;1272;53.332;9.860;2023-03-17T03:55:11;5.20;99.90
2523;DHT22;1272;53.332;9.860;2023-03-17T03:57:37;5.20;99.90
2523;DHT22;1272;53.332;9.860;2023-03-17T04:00:04;5.20;99.90
2523;DHT22;1272;53.332;9.860;2023-03-17T04:02:30;5.10;99.90
2523;DHT22;1272;53.332;9.860;2023-03-17T04:04:56;5.10;99.90
2523;DHT22;1272;53.332;9.860;2023-03-17T04:07:22;5.10;99.90
2523;DHT22;1272;53.332;9.860;2023-03-17T04:09:48;5.10;99.90
2523;DHT22;1272;53.332;9.860;2023-03-17T04:12:17;5.00;99.90
2523;DHT22;1272;53.332;9.860;2023-03-17T04:14:43;5.00;99.90
2523;DHT22;1272;53.332;9.860;2023-03-17T04:17:12;5.00;99.90
2523;DHT22;1272;53.332;9.860;2023-03-17T04:19:39;5.00;99.90
2523;DHT22;1272;53.332;9.860;2023-03-17T04:22:06;5.00;99.90
2523;DHT22;1272;53.332;9.860;2023-03-17T04:24:33;4.90;99.90
2523;DHT22;1272;53.332;9.860;2023-03-17T04:27:00;4.90;99.90
2523;DHT22;1272;53.332;9.860;2023-03-17T04:29:26;4.90;99.90
2523;DHT22;1272;53.332;9.860;2023-03-17T04:31:52;4.90;99.90
2523;DHT22;1272;53.332;9.860;2023-03-17T04:34:18;4.90;99.90
2523;DHT22;1272;53.332;9.860;2023-03-17T04:36:46;4.80;99.90
2523;DHT22;1272;53.332;9.860;2023-03-17T04:39:12;5.00;99.90
2523;DHT22;1272;53.332;9.860;2023-03-17T04:41:38;5.10;99.90
2523;DHT22;1272;53.332;9.860;2023-03-17T04:44:07;5.00;99.90
2523;DHT22;1272;53.332;9.860;2023-03-17T04:46:34;4.90;99.90
2523;DHT22;1272;53.332;9.860;2023-03-17T04:49:00;4.90;99.90
2523;DHT22;1272;53.332;9.860;2023-03-17T04:51:26;5.00;99.90
2523;DHT22;1272;53.332;9.860;2023-03-17T04:53:54;4.90;99.90
2523;DHT22;1272;53.332;9.860;2023-03-17T04:56:23;5.00;99.90
2523;DHT22;1272;53.332;9.860;2023-03-17T04:58:48;4.90;99.90
2523;DHT22;1272;53.332;9.860;2023-03-17T05:01:14;4.80;99.90
2523;DHT22;1272;53.332;9.860;2023-03-17T05:03:40;4.70;99.90
2523;DHT22;1272;53.332;9.860;2023-03-17T05:06:06;4.80;99.90
2523;DHT22;1272;53.332;9.860;2023-03-17T05:08:32;4.80;99.90
2523;DHT22;1272;53.332;9.860;2023-03-17T05:10:58;4.80;99.90
2523;DHT22;1272;53.332;9.860;2023-03-17T05:13:24;4.70;99.90
2523;DHT22;1272;53.332;9.860;2023-03-17T05:15:52;4.70;99.90
2523;DHT22;1272;53.332;9.860;2023-03-17T05:18:19;4.70;99.90
2523;DHT22;1272;53.332;9.860;2023-03-17T05:20:46;4.60;99.90
2523;DHT22;1272;53.332;9.860;2023-03-17T05:23:14;4.60;99.90
2523;DHT22;1272;53.332;9.860;2023-03-17T05:25:40;4.60;99.90
2523;DHT22;1272;53.332;9.860;2023-03-17T05:28:07;4.50;99.90
2523;DHT22;1272;53.332;9.860;2023-03-17T05:30:34;4.60;99.90
2523;DHT22;1272;53.332;9.860;2023-03-17T05:33:03;4.60;99.90
2523;DHT22;1272;53.332;9.860;2023-03-17T05:35:29;4.60;99.90
2523;DHT22;1272;53.332;9.860;2023-03-17T05:37:55;4.60;99.90
2523;DHT22;1272;53.332;9.860;2023-03-17T05:40:21;4.60;99.90
2523;DHT22;1272;53.332;9.860;2023-03-17T05:42:49;4.60;99.90
2523;DHT22;1272;53.332;9.860;2023-03-17T05:45:15;4.70;99.90
2523;DHT22;1272;53.332;9.860;2023-03-17T05:47:41;4.60;99.90
2523;DHT22;1272;53.332;9.860;2023-03-17T05:50:09;4.60;99.90
2523;DHT22;1272;53.332;9.860;2023-03-17T05:52:35;4.50;99.90
2523;DHT22;1272;53.332;9.860;2023-03-17T05:55:01;4.50;99.90
2523;DHT22;1272;53.332;9.860;2023-03-17T05:57:27;4.50;99.90
2523;DHT22;1272;53.332;9.860;2023-03-17T05:59:53;4.50;99.90
2523;DHT22;1272;53.332;9.860;2023-03-17T06:02:19;4.50;99.90
2523;DHT22;1272;53.332;9.860;2023-03-17T06:04:45;4.50;99.90
2523;DHT22;1272;53.332;9.860;2023-03-17T06:07:11;4.50;99.90
2523;DHT22;1272;53.332;9.860;2023-03-17T06:09:37;4.50;99.90
2523;DHT22;1272;53.332;9.860;2023-03-17T06:12:03;4.60;99.90
2523;DHT22;1272;53.332;9.860;2023-03-17T06:14:29;4.60;99.90
2523;DHT22;1272;53.332;9.860;2023-03-17T06:16:55;4.70;99.90
2523;DHT22;1272;53.332;9.860;2023-03-17T06:19:21;4.70;99.90
2523;DHT22;1272;53.332;9.860;2023-03-17T06:21:47;4.60;99.90
2523;DHT22;1272;53.332;9.860;2023-03-17T06:24:13;4.70;99.90
2523;DHT22;1272;53.332;9.860;2023-03-17T06:26:38;4.70;99.90
2523;DHT22;1272;53.332;9.860;2023-03-17T06:29:05;4.70;99.90
2523;DHT22;1272;53.332;9.860;2023-03-17T06:31:37;4.70;99.90
2523;DHT22;1272;53.332;9.860;2023-03-17T06:34:03;4.80;99.90
2523;DHT22;1272;53.332;9.860;2023-03-17T06:36:30;4.80;99.90
2523;DHT22;1272;53.332;9.860;2023-03-17T06:38:57;4.80;99.90
2523;DHT22;1272;53.332;9.860;2023-03-17T06:41:22;4.80;99.90
2523;DHT22;1272;53.332;9.860;2023-03-17T06:43:48;4.90;99.90
2523;DHT22;1272;53.332;9.860;2023-03-17T06:46:14;4.90;99.90
2523;DHT22;1272;53.332;9.860;2023-03-17T06:48:40;4.90;99.90
2523;DHT22;1272;53.332;9.860;2023-03-17T06:51:05;4.90;99.90
2523;DHT22;1272;53.332;9.860;2023-03-17T06:53:31;5.00;99.90
2523;DHT22;1272;53.332;9.860;2023-03-17T06:55:57;5.10;99.90
2523;DHT22;1272;53.332;9.860;2023-03-17T06:58:23;5.20;99.90
2523;DHT22;1272;53.332;9.860;2023-03-17T07:00:52;5.20;99.90
2523;DHT22;1272;53.332;9.860;2023-03-17T07:03:19;5.20;99.90
2523;DHT22;1272;53.332;9.860;2023-03-17T07:05:46;5.30;99.90
2523;DHT22;1272;53.332;9.860;2023-03-17T07:08:15;5.30;99.90
2523;DHT22;1272;53.332;9.860;2023-03-17T07:10:41;5.40;99.90
2523;DHT22;1272;53.332;9.860;2023-03-17T07:13:08;5.50;99.90
2523;DHT22;1272;53.332;9.860;2023-03-17T07:15:35;5.50;99.90
2523;DHT22;1272;53.332;9.860;2023-03-17T07:18:02;5.60;99.90
2523;DHT22;1272;53.332;9.860;2023-03-17T07:20:28;5.70;99.90
2523;DHT22;1272;53.332;9.860;2023-03-17T07:22:54;5.70;99.90
2523;DHT22;1272;53.332;9.860;2023-03-17T07:25:20;5.80;99.90
2523;DHT22;1272;53.332;9.860;2023-03-17T07:27:47;5.90;99.90
2523;DHT22;1272;53.332;9.860;2023-03-17T07:30:13;6.00;99.90
2523;DHT22;1272;53.332;9.860;2023-03-17T07:32:43;6.10;99.90
2523;DHT22;1272;53.332;9.860;2023-03-17T07:35:09;6.30;99.90
2523;DHT22;1272;53.332;9.860;2023-03-17T07:37:35;6.40;99.90
2523;DHT22;1272;53.332;9.860;2023-03-17T07:40:01;6.50;99.90
2523;DHT22;1272;53.332;9.860;2023-03-17T07:42:26;6.50;99.90
2523;DHT22;1272;53.332;9.860;2023-03-17T07:44:53;6.70;99.90
2523;DHT22;1272;53.332;9.860;2023-03-17T07:47:19;6.80;99.90
2523;DHT22;1272;53.332;9.860;2023-03-17T07:49:44;6.90;99.90
2523;DHT22;1272;53.332;9.860;2023-03-17T07:52:11;6.90;99.90
2523;DHT22;1272;53.332;9.860;2023-03-17T07:54:38;7.00;99.90
2523;DHT22;1272;53.332;9.860;2023-03-17T07:57:05;7.20;99.90
2523;DHT22;1272;53.332;9.860;2023-03-17T07:59:31;7.20;99.90
2523;DHT22;1272;53.332;9.860;2023-03-17T08:01:57;7.20;99.90
2523;DHT22;1272;53.332;9.860;2023-03-17T08:04:26;7.20;99.90
2523;DHT22;1272;53.332;9.860;2023-03-17T08:06:55;7.40;99.90
2523;DHT22;1272;53.332;9.860;2023-03-17T08:09:22;7.40;99.90
2523;DHT22;1272;53.332;9.860;2023-03-17T08:11:48;7.60;99.90
2523;DHT22;1272;53.332;9.860;2023-03-17T08:14:13;7.70;99.90
2523;DHT22;1272;53.332;9.860;2023-03-17T08:16:40;7.70;99.90
2523;DHT22;1272;53.332;9.860;2023-03-17T08:19:07;7.80;99.90
2523;DHT22;1272;53.332;9.860;2023-03-17T08:21:33;7.90;99.90
2523;DHT22;1272;53.332;9.860;2023-03-17T08:23:58;7.90;99.90
2523;DHT22;1272;53.332;9.860;2023-03-17T08:26:24;7.90;99.90
2523;DHT22;1272;53.332;9.860;2023-03-17T08:28:50;8.00;99.90
2523;DHT22;1272;53.332;9.860;2023-03-17T08:31:20;8.10;99.90
2523;DHT22;1272;53.332;9.860;2023-03-17T08:33:49;8.10;99.90
2523;DHT22;1272;53.332;9.860;2023-03-17T08:36:16;8.20;99.90
2523;DHT22;1272;53.332;9.860;2023-03-17T08:38:43;8.30;99.90
2523;DHT22;1272;53.332;9.860;2023-03-17T08:41:12;8.40;99.90
2523;DHT22;1272;53.332;9.860;2023-03-17T08:43:39;8.40;99.90
2523;DHT22;1272;53.332;9.860;2023-03-17T08:46:21;8.50;99.90
2523;DHT22;1272;53.332;9.860;2023-03-17T08:48:48;8.60;99.90
2523;DHT22;1272;53.332;9.860;2023-03-17T08:51:16;8.70;99.90
2523;DHT22;1272;53.332;9.860;2023-03-17T08:53:42;8.80;99.90
2523;DHT22;1272;53.332;9.860;2023-03-17T08:56:08;8.80;99.90
2523;DHT22;1272;53.332;9.860;2023-03-17T08:58:35;8.90;99.90
2523;DHT22;1272;53.332;9.860;2023-03-17T09:01:03;9.00;99.90
2523;DHT22;1272;53.332;9.860;2023-03-17T09:03:29;9.10;99.90
2523;DHT22;1272;53.332;9.860;2023-03-17T09:05:55;9.20;99.90
2523;DHT22;1272;53.332;9.860;2023-03-17T09:08:22;9.30;99.90
2523;DHT22;1272;53.332;9.860;2023-03-17T09:10:49;9.40;99.90
2523;DHT22;1272;53.332;9.860;2023-03-17T09:13:14;9.40;99.90
2523;DHT22;1272;53.332;9.860;2023-03-17T09:15:41;9.60;99.90
2523;DHT22;1272;53.332;9.860;2023-03-17T09:18:07;9.70;99.90
2523;DHT22;1272;53.332;9.860;2023-03-17T09:20:34;9.70;99.90
2523;DHT22;1272;53.332;9.860;2023-03-17T09:23:00;9.90;99.90
2523;DHT22;1272;53.332;9.860;2023-03-17T09:25:25;10.00;99.90
2523;DHT22;1272;53.332;9.860;2023-03-17T09:27:52;10.10;99.90
2523;DHT22;1272;53.332;9.860;2023-03-17T09:30:17;10.10;99.90
2523;DHT22;1272;53.332;9.860;2023-03-17T09:32:44;10.20;99.90
2523;DHT22;1272;53.332;9.860;2023-03-17T09:35:10;10.30;99.90
2523;DHT22;1272;53.332;9.860;2023-03-17T09:37:37;10.40;99.90
2523;DHT22;1272;53.332;9.860;2023-03-17T09:40:04;10.50;99.90
2523;DHT22;1272;53.332;9.860;2023-03-17T09:42:52;10.60;99.90
2523;DHT22;1272;53.332;9.860;2023-03-17T09:50:45;11.30;99.90
2523;DHT22;1272;53.332;9.860;2023-03-17T09:53:25;11.50;99.90
2523;DHT22;1272;53.332;9.860;2023-03-17T09:55:55;11.60;99.90
2523;DHT22;1272;53.332;9.860;2023-03-17T09:58:33;11.70;99.90
2523;DHT22;1272;53.332;9.860;2023-03-17T10:01:00;11.70;99.90
2523;DHT22;1272;53.332;9.860;2023-03-17T10:03:26;11.80;99.90
2523;DHT22;1272;53.332;9.860;2023-03-17T10:05:57;11.90;99.90
2523;DHT22;1272;53.332;9.860;2023-03-17T10:08:32;12.00;99.90
2523;DHT22;1272;53.332;9.860;2023-03-17T10:19:24;12.40;99.90
2523;DHT22;1272;53.332;9.860;2023-03-17T10:22:18;12.60;99.90
2523;DHT22;1272;53.332;9.860;2023-03-17T10:24:50;12.70;99.90
2523;DHT22;1272;53.332;9.860;2023-03-17T10:27:17;12.70;99.90
2523;DHT22;1272;53.332;9.860;2023-03-17T10:29:43;12.80;99.90
2523;DHT22;1272;53.332;9.860;2023-03-17T10:32:11;13.00;99.90
2523;DHT22;1272;53.332;9.860;2023-03-17T10:34:38;13.20;99.90
2523;DHT22;1272;53.332;9.860;2023-03-17T10:37:14;13.50;99.90
2523;DHT22;1272;53.332;9.860;2023-03-17T10:39:55;13.70;99.90
2523;DHT22;1272;53.332;9.860;2023-03-17T10:42:29;13.80;99.90
2523;DHT22;1272;53.332;9.860;2023-03-17T10:45:00;14.00;99.90
2523;DHT22;1272;53.332;9.860;2023-03-17T10:47:37;14.20;99.90
2523;DHT22;1272;53.332;9.860;2023-03-17T10:52:39;14.50;99.90
2523;DHT22;1272;53.332;9.860;2023-03-17T10:55:08;14.50;99.90
2523;DHT22;1272;53.332;9.860;2023-03-17T10:57:38;14.50;99.90
2523;DHT22;1272;53.332;9.860;2023-03-17T11:00:16;14.70;99.90
2523;DHT22;1272;53.332;9.860;2023-03-17T11:02:55;14.70;99.90
2523;DHT22;1272;53.332;9.860;2023-03-17T11:05:24;14.80;99.90
2523;DHT22;1272;53.332;9.860;2023-03-17T11:07:57;14.90;99.90
2523;DHT22;1272;53.332;9.860;2023-03-17T11:10:35;15.10;99.90
2523;DHT22;1272;53.332;9.860;2023-03-17T11:13:02;15.20;99.90
2523;DHT22;1272;53.332;9.860;2023-03-17T11:15:34;15.30;99.90
2523;DHT22;1272;53.332;9.860;2023-03-17T11:18:47;15.30;99.90
2523;DHT22;1272;53.332;9.860;2023-03-17T11:29:16;15.40;99.90
2523;DHT22;1272;53.332;9.860;2023-03-17T11:40:16;15.40;99.90
2523;DHT22;1272;53.332;9.860;2023-03-17T11:45:41;15.60;99.90
2523;DHT22;1272;53.332;9.860;2023-03-17T11:54:08;15.90;99.90
2523;DHT22;1272;53.332;9.860;2023-03-17T11:59:24;16.20;99.90
2523;DHT22;1272;53.332;9.860;2023-03-17T12:05:09;16.40;99.90
2523;DHT22;1272;53.332;9.860;2023-03-17T12:13:04;17.10;99.90
2523;DHT22;1272;53.332;9.860;2023-03-17T12:15:56;17.20;99.90
2523;DHT22;1272;53.332;9.860;2023-03-17T12:19:12;17.40;99.90
2523;DHT22;1272;53.332;9.860;2023-03-17T12:24:23;17.80;99.90
2523;DHT22;1272;53.332;9.860;2023-03-17T12:35:28;17.60;99.90
2523;DHT22;1272;53.332;9.860;2023-03-17T12:37:58;17.60;99.90
2523;DHT22;1272;53.332;9.860;2023-03-17T12:40:33;17.80;99.90
2523;DHT22;1272;53.332;9.860;2023-03-17T12:48:48;17.90;99.90
2523;DHT22;1272;53.332;9.860;2023-03-17T12:53:57;18.40;99.90
2523;DHT22;1272;53.332;9.860;2023-03-17T12:56:35;18.60;99.90
2523;DHT22;1272;53.332;9.860;2023-03-17T12:59:05;18.60;99.90
2523;DHT22;1272;53.332;9.860;2023-03-17T13:01:43;18.70;99.90
2523;DHT22;1272;53.332;9.860;2023-03-17T13:04:27;18.60;99.90
2523;DHT22;1272;53.332;9.860;2023-03-17T13:11:59;19.10;99.90
2523;DHT22;1272;53.332;9.860;2023-03-17T13:22:35;19.20;99.90
2523;DHT22;1272;53.332;9.860;2023-03-17T13:27:52;19.40;99.90
2523;DHT22;1272;53.332;9.860;2023-03-17T13:32:56;19.40;99.90
2523;DHT22;1272;53.332;9.860;2023-03-17T13:51:53;18.30;99.90
2523;DHT22;1272;53.332;9.860;2023-03-17T13:54:29;18.10;99.90
2523;DHT22;1272;53.332;9.860;2023-03-17T13:56:57;18.00;99.90
2523;DHT22;1272;53.332;9.860;2023-03-17T14:02:21;17.80;99.90
2523;DHT22;1272;53.332;9.860;2023-03-17T14:04:57;17.80;99.90
2523;DHT22;1272;53.332;9.860;2023-03-17T14:07:30;17.80;99.90
2523;DHT22;1272;53.332;9.860;2023-03-17T14:10:00;17.80;99.90
2523;DHT22;1272;53.332;9.860;2023-03-17T14:12:38;17.80;99.90
2523;DHT22;1272;53.332;9.860;2023-03-17T14:15:14;17.70;99.90
2523;DHT22;1272;53.332;9.860;2023-03-17T14:18:30;17.70;99.90
2523;DHT22;1272;53.332;9.860;2023-03-17T14:20:36;17.80;99.90
2523;DHT22;1272;53.332;9.860;2023-03-17T14:23:02;17.80;99.90
2523;DHT22;1272;53.332;9.860;2023-03-17T14:25:36;17.70;99.90
2523;DHT22;1272;53.332;9.860;2023-03-17T14:28:07;17.50;99.90
2523;DHT22;1272;53.332;9.860;2023-03-17T14:30:35;17.40;99.90
2523;DHT22;1272;53.332;9.860;2023-03-17T14:33:05;17.30;99.90
2523;DHT22;1272;53.332;9.860;2023-03-17T14:35:33;17.10;99.90
2523;DHT22;1272;53.332;9.860;2023-03-17T14:38:00;17.10;99.90
2523;DHT22;1272;53.332;9.860;2023-03-17T14:40:28;17.00;99.90
2523;DHT22;1272;53.332;9.860;2023-03-17T14:42:56;17.00;99.90
2523;DHT22;1272;53.332;9.860;2023-03-17T14:48:04;17.00;99.90
2523;DHT22;1272;53.332;9.860;2023-03-17T14:50:31;17.00;99.90
2523;DHT22;1272;53.332;9.860;2023-03-17T14:52:58;17.00;99.90
2523;DHT22;1272;53.332;9.860;2023-03-17T14:55:41;17.00;99.90
2523;DHT22;1272;53.332;9.860;2023-03-17T14:58:25;17.10;99.90
2523;DHT22;1272;53.332;9.860;2023-03-17T15:01:06;17.10;99.90
2523;DHT22;1272;53.332;9.860;2023-03-17T15:03:37;17.10;99.90
2523;DHT22;1272;53.332;9.860;2023-03-17T15:06:25;17.00;99.90
2523;DHT22;1272;53.332;9.860;2023-03-17T15:08:51;16.90;99.90
2523;DHT22;1272;53.332;9.860;2023-03-17T15:11:22;16.80;99.90
2523;DHT22;1272;53.332;9.860;2023-03-17T15:13:51;16.80;99.90
2523;DHT22;1272;53.332;9.860;2023-03-17T15:16:27;16.70;99.90
2523;DHT22;1272;53.332;9.860;2023-03-17T15:19:13;16.60;99.90
2523;DHT22;1272;53.332;9.860;2023-03-17T15:21:41;16.50;99.90
2523;DHT22;1272;53.332;9.860;2023-03-17T15:24:40;16.50;99.90
2523;DHT22;1272;53.332;9.860;2023-03-17T15:27:14;16.40;99.90
2523;DHT22;1272;53.332;9.860;2023-03-17T15:29:40;16.40;99.90
2523;DHT22;1272;53.332;9.860;2023-03-17T15:32:15;16.30;99.90
2523;DHT22;1272;53.332;9.860;2023-03-17T15:34:41;16.30;99.90
2523;DHT22;1272;53.332;9.860;2023-03-17T15:37:17;16.20;99.90
2523;DHT22;1272;53.332;9.860;2023-03-17T15:39:43;16.10;99.90
2523;DHT22;1272;53.332;9.860;2023-03-17T15:42:09;16.10;99.90
2523;DHT22;1272;53.332;9.860;2023-03-17T15:44:35;16.00;99.90
2523;DHT22;1272;53.332;9.860;2023-03-17T15:47:01;15.90;99.90
2523;DHT22;1272;53.332;9.860;2023-03-17T15:49:27;15.90;99.90
2523;DHT22;1272;53.332;9.860;2023-03-17T15:51:54;15.90;99.90
2523;DHT22;1272;53.332;9.860;2023-03-17T15:54:20;15.70;99.90
2523;DHT22;1272;53.332;9.860;2023-03-17T15:56:46;15.60;99.90
2523;DHT22;1272;53.332;9.860;2023-03-17T15:59:12;15.40;99.90
2523;DHT22;1272;53.332;9.860;2023-03-17T16:01:38;15.40;99.90
2523;DHT22;1272;53.332;9.860;2023-03-17T16:04:06;15.30;99.90
2523;DHT22;1272;53.332;9.860;2023-03-17T16:06:33;15.30;99.90
2523;DHT22;1272;53.332;9.860;2023-03-17T16:08:59;15.30;99.90
2523;DHT22;1272;53.332;9.860;2023-03-17T16:11:28;15.40;99.90
2523;DHT22;1272;53.332;9.860;2023-03-17T16:13:57;15.40;99.90
2523;DHT22;1272;53.332;9.860;2023-03-17T16:16:30;15.40;99.90
2523;DHT22;1272;53.332;9.860;2023-03-17T16:19:03;15.40;99.90
2523;DHT22;1272;53.332;9.860;2023-03-17T16:21:30;15.40;99.90
2523;DHT22;1272;53.332;9.860;2023-03-17T16:23:56;15.40;99.90
2523;DHT22;1272;53.332;9.860;2023-03-17T16:26:22;15.30;99.90
2523;DHT22;1272;53.332;9.860;2023-03-17T16:28:48;15.30;99.90
2523;DHT22;1272;53.332;9.860;2023-03-17T16:31:23;15.30;99.90
2523;DHT22;1272;53.332;9.860;2023-03-17T16:33:50;15.20;99.90
2523;DHT22;1272;53.332;9.860;2023-03-17T16:36:19;15.20;99.90
2523;DHT22;1272;53.332;9.860;2023-03-17T16:38:45;15.20;99.90
2523;DHT22;1272;53.332;9.860;2023-03-17T16:41:23;15.10;99.90
2523;DHT22;1272;53.332;9.860;2023-03-17T16:43:52;15.10;99.90
2523;DHT22;1272;53.332;9.860;2023-03-17T16:46:20;15.00;99.90
2523;DHT22;1272;53.332;9.860;2023-03-17T16:48:47;15.00;99.90
2523;DHT22;1272;53.332;9.860;2023-03-17T16:51:13;14.90;99.90
2523;DHT22;1272;53.332;9.860;2023-03-17T16:53:38;14.80;99.90
2523;DHT22;1272;53.332;9.860;2023-03-17T16:56:09;14.80;99.90
2523;DHT22;1272;53.332;9.860;2023-03-17T16:58:37;14.70;99.90
2523;DHT22;1272;53.332;9.860;2023-03-17T17:01:10;14.60;99.90
2523;DHT22;1272;53.332;9.860;2023-03-17T17:03:36;14.50;99.90
2523;DHT22;1272;53.332;9.860;2023-03-17T17:06:03;14.40;99.90
2523;DHT22;1272;53.332;9.860;2023-03-17T17:08:30;14.30;99.90
2523;DHT22;1272;53.332;9.860;2023-03-17T17:10:55;14.20;99.90
2523;DHT22;1272;53.332;9.860;2023-03-17T17:13:21;14.10;99.90
2523;DHT22;1272;53.332;9.860;2023-03-17T17:15:47;13.90;99.90
2523;DHT22;1272;53.332;9.860;2023-03-17T17:18:15;13.80;99.90
2523;DHT22;1272;53.332;9.860;2023-03-17T17:20:42;13.60;99.90
2523;DHT22;1272;53.332;9.860;2023-03-17T17:23:23;13.50;99.90
2523;DHT22;1272;53.332;9.860;2023-03-17T17:25:50;13.40;99.90
2523;DHT22;1272;53.332;9.860;2023-03-17T17:28:17;13.30;99.90
2523;DHT22;1272;53.332;9.860;2023-03-17T17:30:44;13.20;99.90
2523;DHT22;1272;53.332;9.860;2023-03-17T17:33:13;13.10;99.90
2523;DHT22;1272;53.332;9.860;2023-03-17T17:35:41;13.10;99.90
2523;DHT22;1272;53.332;9.860;2023-03-17T17:38:19;13.00;99.90
2523;DHT22;1272;53.332;9.860;2023-03-17T17:40:45;13.00;99.90
2523;DHT22;1272;53.332;9.860;2023-03-17T17:43:11;12.90;99.90
2523;DHT22;1272;53.332;9.860;2023-03-17T17:45:37;12.80;99.90
2523;DHT22;1272;53.332;9.860;2023-03-17T17:48:03;12.70;99.90
2523;DHT22;1272;53.332;9.860;2023-03-17T17:50:29;12.60;99.90
2523;DHT22;1272;53.332;9.860;2023-03-17T17:52:55;12.50;99.90
2523;DHT22;1272;53.332;9.860;2023-03-17T17:55:27;12.40;99.90
2523;DHT22;1272;53.332;9.860;2023-03-17T17:57:53;12.30;99.90
2523;DHT22;1272;53.332;9.860;2023-03-17T18:00:19;12.20;99.90
2523;DHT22;1272;53.332;9.860;2023-03-17T18:02:45;12.20;99.90
2523;DHT22;1272;53.332;9.860;2023-03-17T18:05:11;12.10;99.90
2523;DHT22;1272;53.332;9.860;2023-03-17T18:07:38;12.10;99.90
2523;DHT22;1272;53.332;9.860;2023-03-17T18:10:04;12.00;99.90
2523;DHT22;1272;53.332;9.860;2023-03-17T18:12:30;12.00;99.90
2523;DHT22;1272;53.332;9.860;2023-03-17T18:14:56;11.90;99.90
2523;DHT22;1272;53.332;9.860;2023-03-17T18:17:22;11.90;99.90
2523;DHT22;1272;53.332;9.860;2023-03-17T18:19:50;11.80;99.90
2523;DHT22;1272;53.332;9.860;2023-03-17T18:22:19;11.70;99.90
2523;DHT22;1272;53.332;9.860;2023-03-17T18:24:46;11.70;99.90